Time;durP1;ratioP1;P1;durP2;ratioP2;P2;SDS_P1;SDS_P2;PMS_P1;PMS_P2;Temp;Humidity;BMP_temperature;BMP_pressure;BME280_temperature;BME280_humidity;BME280_pressure;Samples;Min_cycle;Max_cycle;Signal;HPM_P1;HPM_P2
2021/05/09 00:01:55;;;;;;;9.88;6.45;;;12.70;99.90;;;;;;5096532;28;20129;-65
2021/05/09 00:04:21;;;;;;;9.10;6.15;;;12.70;99.90;;;;;;5091272;28;20032;-65
2021/05/09 00:06:49;;;;;;;9.90;5.88;;;12.70;99.90;;;;;;5094884;28;20083;-65
2021/05/09 00:09:15;;;;;;;9.63;4.90;;;12.70;99.90;;;;;;5073501;28;20051;-65
2021/05/09 00:11:42;;;;;;;8.95;5.43;;;12.70;99.90;;;;;;5082186;28;20032;-65
2021/05/09 00:14:08;;;;;;;8.75;5.28;;;12.70;99.90;;;;;;5097495;27;20039;-65
2021/05/09 00:16:36;;;;;;;9.43;5.50;;;12.70;99.90;;;;;;5096421;28;20134;-65
2021/05/09 00:19:02;;;;;;;7.15;5.60;;;12.70;99.90;;;;;;5099364;28;20035;-65
2021/05/09 00:21:28;;;;;;;10.68;5.20;;;12.80;99.90;;;;;;5091500;28;20414;-65
2021/05/09 00:23:54;;;;;;;7.65;5.00;;;12.70;99.90;;;;;;5098376;28;20039;-65
2021/05/09 00:26:22;;;;;;;6.28;4.45;;;12.70;99.90;;;;;;5099666;28;20433;-65
2021/05/09 00:28:48;;;;;;;8.10;5.88;;;12.60;99.90;;;;;;5106476;28;20043;-65
2021/05/09 00:31:14;;;;;;;9.88;5.95;;;12.60;99.90;;;;;;5095789;28;20044;-65
2021/05/09 00:33:40;;;;;;;13.13;5.45;;;12.50;99.90;;;;;;5100242;28;20131;-65
2021/05/09 00:36:06;;;;;;;7.30;5.18;;;12.50;99.90;;;;;;5097027;28;20047;-66
2021/05/09 00:38:32;;;;;;;7.53;5.05;;;12.50;99.90;;;;;;5099978;28;20046;-66
2021/05/09 00:40:58;;;;;;;7.78;5.35;;;12.50;99.90;;;;;;5093253;28;20040;-66
2021/05/09 00:43:24;;;;;;;7.95;5.20;;;12.50;99.90;;;;;;5100623;28;20071;-65
2021/05/09 00:45:51;;;;;;;10.23;5.63;;;12.40;99.90;;;;;;5095025;28;20040;-65
2021/05/09 00:48:18;;;;;;;6.78;5.25;;;12.50;99.90;;;;;;5100563;28;20677;-65
2021/05/09 00:50:45;;;;;;;9.95;5.03;;;12.40;99.90;;;;;;5096748;28;20518;-65
2021/05/09 00:53:13;;;;;;;7.10;5.45;;;12.40;99.90;;;;;;5099991;28;20127;-65
2021/05/09 00:55:40;;;;;;;7.57;5.55;;;12.40;99.90;;;;;;5092093;28;20102;-66
2021/05/09 00:58:11;;;;;;;6.13;4.63;;;12.50;99.90;;;;;;5101489;28;20063;-65
2021/05/09 01:00:38;;;;;;;8.65;5.00;;;12.40;99.90;;;;;;5095208;28;20472;-65
2021/05/09 01:03:08;;;;;;;8.02;5.32;;;12.50;99.90;;;;;;5100818;28;20043;-65
2021/05/09 01:05:35;;;;;;;7.68;5.57;;;12.40;99.90;;;;;;5097024;28;20116;-65
2021/05/09 01:08:02;;;;;;;7.20;5.43;;;12.40;99.90;;;;;;5100875;28;20043;-65
2021/05/09 01:10:28;;;;;;;9.10;5.30;;;12.40;99.90;;;;;;5099090;28;20031;-65
2021/05/09 01:12:55;;;;;;;8.82;5.55;;;12.40;99.90;;;;;;5106131;28;20039;-65
2021/05/09 01:15:21;;;;;;;9.80;5.47;;;12.40;99.90;;;;;;5098113;28;20062;-65
2021/05/09 01:17:47;;;;;;;8.02;5.40;;;12.30;99.90;;;;;;5095353;28;20039;-65
2021/05/09 01:20:13;;;;;;;8.52;5.50;;;12.20;99.90;;;;;;5101400;28;20406;-66
2021/05/09 01:22:42;;;;;;;7.20;5.00;;;12.20;99.90;;;;;;5097398;27;20085;-66
2021/05/09 01:25:09;;;;;;;9.15;5.43;;;12.10;99.90;;;;;;5095374;28;20042;-67
2021/05/09 01:27:37;;;;;;;10.57;5.50;;;12.10;99.90;;;;;;5095069;28;20048;-66
2021/05/09 01:30:05;;;;;;;8.07;5.60;;;12.10;99.90;;;;;;5101981;28;20035;-67
2021/05/09 01:32:31;;;;;;;7.75;5.28;;;12.00;99.90;;;;;;5096529;28;20119;-67
2021/05/09 01:34:57;;;;;;;6.50;5.53;;;12.00;99.90;;;;;;5088230;28;20122;-68
2021/05/09 01:37:23;;;;;;;11.43;6.40;;;11.90;99.90;;;;;;5095194;28;20089;-67
2021/05/09 01:39:48;;;;;;;8.30;5.32;;;11.90;99.90;;;;;;5101218;28;20036;-67
2021/05/09 01:42:14;;;;;;;7.03;5.60;;;11.90;99.90;;;;;;5098988;28;20479;-66
2021/05/09 01:44:54;;;;;;;9.20;5.57;;;11.80;99.90;;;;;;5100426;28;20042;-70
2021/05/09 01:47:21;;;;;;;6.57;5.85;;;11.80;99.90;;;;;;5093671;28;20527;-67
2021/05/09 01:49:50;;;;;;;8.07;5.35;;;11.80;99.90;;;;;;5106246;28;20444;-67
2021/05/09 01:52:18;;;;;;;7.28;5.40;;;11.80;99.90;;;;;;5090313;28;20044;-66
2021/05/09 01:54:44;;;;;;;8.07;5.45;;;11.70;99.90;;;;;;5101865;28;20462;-66
2021/05/09 01:57:10;;;;;;;8.82;6.20;;;11.70;99.90;;;;;;5102293;28;20062;-66
2021/05/09 01:59:36;;;;;;;8.30;5.40;;;11.70;99.90;;;;;;5101190;28;20032;-67
2021/05/09 02:02:02;;;;;;;9.25;5.93;;;11.70;99.90;;;;;;5099236;28;20070;-66
2021/05/09 02:04:34;;;;;;;9.70;6.20;;;11.70;99.90;;;;;;5094280;28;20040;-66
2021/05/09 02:07:20;;;;;;;10.90;6.10;;;11.70;99.90;;;;;;5083886;28;20063;-65
2021/05/09 02:09:46;;;;;;;7.47;5.53;;;11.70;99.90;;;;;;5093465;28;20063;-66
2021/05/09 02:12:12;;;;;;;6.38;5.38;;;11.60;99.90;;;;;;5086655;28;20475;-66
2021/05/09 02:14:38;;;;;;;8.75;6.00;;;11.70;99.90;;;;;;5089355;28;20081;-66
2021/05/09 02:17:04;;;;;;;8.98;5.70;;;11.60;99.90;;;;;;5104678;28;20275;-66
2021/05/09 02:19:31;;;;;;;8.95;5.45;;;11.70;99.90;;;;;;5091432;28;20130;-66
2021/05/09 02:21:57;;;;;;;7.07;5.20;;;11.70;99.90;;;;;;5097953;28;20028;-65
2021/05/09 02:24:23;;;;;;;10.18;6.00;;;11.80;99.90;;;;;;5098230;28;20152;-66
2021/05/09 02:26:49;;;;;;;10.10;5.80;;;11.70;99.90;;;;;;5097924;28;20043;-66
2021/05/09 02:29:15;;;;;;;11.00;6.20;;;11.70;99.90;;;;;;5092440;28;20043;-66
2021/05/09 02:31:40;;;;;;;9.05;5.55;;;11.70;99.90;;;;;;5095119;28;20043;-66
2021/05/09 02:34:06;;;;;;;8.80;5.95;;;11.60;99.90;;;;;;5079643;28;20111;-67
2021/05/09 02:36:33;;;;;;;9.77;4.95;;;11.60;99.90;;;;;;5099202;28;20046;-65
2021/05/09 02:38:59;;;;;;;7.38;5.38;;;11.60;99.90;;;;;;5093346;28;20467;-67
2021/05/09 02:41:24;;;;;;;6.65;5.63;;;11.60;99.90;;;;;;5103791;28;20039;-67
2021/05/09 02:43:50;;;;;;;8.48;5.05;;;11.60;99.90;;;;;;5098306;28;20071;-66
2021/05/09 02:46:16;;;;;;;11.88;5.68;;;11.60;99.90;;;;;;5090272;28;20032;-65
2021/05/09 02:48:42;;;;;;;9.50;5.43;;;11.50;99.90;;;;;;5097353;28;20051;-65
2021/05/09 02:51:08;;;;;;;6.65;5.68;;;11.60;99.90;;;;;;5093793;28;20444;-65
2021/05/09 02:53:34;;;;;;;7.53;5.97;;;11.60;99.90;;;;;;5100715;28;20060;-65
2021/05/09 02:56:01;;;;;;;7.53;6.18;;;11.60;99.90;;;;;;5091208;28;20077;-66
2021/05/09 02:58:27;;;;;;;9.15;5.50;;;11.60;99.90;;;;;;5103644;28;20096;-66
2021/05/09 03:00:52;;;;;;;10.57;5.60;;;11.60;99.90;;;;;;5089183;28;20040;-66
2021/05/09 03:03:19;;;;;;;8.43;5.72;;;11.60;99.90;;;;;;5095608;28;20476;-66
2021/05/09 03:05:44;;;;;;;9.18;5.70;;;11.60;99.90;;;;;;5094747;28;20043;-65
2021/05/09 03:08:10;;;;;;;7.30;5.35;;;11.60;99.90;;;;;;5096589;28;20453;-65
2021/05/09 03:10:36;;;;;;;10.38;6.03;;;11.50;99.90;;;;;;5096618;28;20036;-65
2021/05/09 03:13:02;;;;;;;9.65;5.63;;;11.60;99.90;;;;;;5098603;28;20034;-65
2021/05/09 03:15:28;;;;;;;8.20;5.70;;;11.60;99.90;;;;;;5098711;28;20039;-65
2021/05/09 03:17:54;;;;;;;8.70;6.05;;;11.60;99.90;;;;;;5102593;28;20054;-65
2021/05/09 03:20:20;;;;;;;10.82;5.88;;;11.60;99.90;;;;;;5098088;28;20028;-65
2021/05/09 03:22:47;;;;;;;8.38;6.00;;;11.60;99.90;;;;;;5090053;28;20260;-65
2021/05/09 03:25:13;;;;;;;6.95;5.43;;;11.60;99.90;;;;;;5096250;28;20040;-65
2021/05/09 03:27:39;;;;;;;6.93;5.80;;;11.60;99.90;;;;;;5091037;28;20038;-65
2021/05/09 03:30:05;;;;;;;10.30;5.95;;;11.60;99.90;;;;;;5098947;28;20526;-66
2021/05/09 03:32:31;;;;;;;7.50;6.05;;;11.60;99.90;;;;;;5081156;28;20040;-66
2021/05/09 03:34:57;;;;;;;8.00;5.70;;;11.60;99.90;;;;;;5102685;28;20516;-66
2021/05/09 03:37:23;;;;;;;7.00;5.60;;;11.60;99.90;;;;;;5091275;28;20035;-66
2021/05/09 03:39:48;;;;;;;8.30;5.57;;;11.60;99.90;;;;;;5101324;28;20088;-66
2021/05/09 03:42:14;;;;;;;7.38;6.00;;;11.60;99.90;;;;;;5077301;28;20512;-66
2021/05/09 03:44:40;;;;;;;9.20;5.40;;;11.60;99.90;;;;;;5100432;28;20042;-66
2021/05/09 03:47:06;;;;;;;7.15;5.35;;;11.60;99.90;;;;;;5094656;28;20410;-66
2021/05/09 03:49:32;;;;;;;8.52;5.57;;;11.60;99.90;;;;;;5099924;28;20039;-66
2021/05/09 03:51:58;;;;;;;10.95;5.53;;;11.60;99.90;;;;;;5094000;28;20036;-66
2021/05/09 03:54:30;;;;;;;8.68;5.28;;;11.50;99.90;;;;;;5100862;28;20561;-66
2021/05/09 03:56:55;;;;;;;8.38;5.78;;;11.60;99.90;;;;;;5092989;28;20130;-66
2021/05/09 03:59:21;;;;;;;9.40;5.72;;;11.50;99.90;;;;;;5074765;28;20421;-66
2021/05/09 04:01:47;;;;;;;7.45;5.53;;;11.60;99.90;;;;;;5096596;28;20461;-66
2021/05/09 04:04:13;;;;;;;10.18;5.78;;;11.50;99.90;;;;;;5086609;28;20518;-66
2021/05/09 04:06:38;;;;;;;10.10;5.75;;;11.50;99.90;;;;;;5099720;28;20484;-66
2021/05/09 04:09:05;;;;;;;12.27;6.43;;;11.50;99.90;;;;;;5078117;28;20059;-66
2021/05/09 04:11:33;;;;;;;9.57;6.15;;;11.40;99.90;;;;;;5098644;28;20118;-66
2021/05/09 04:13:59;;;;;;;8.70;5.97;;;11.40;99.90;;;;;;5093114;28;20483;-66
2021/05/09 04:16:25;;;;;;;7.43;5.75;;;11.40;99.90;;;;;;5099629;28;20044;-66
2021/05/09 04:18:51;;;;;;;9.13;6.03;;;11.40;99.90;;;;;;5092501;28;20395;-66
2021/05/09 04:21:17;;;;;;;9.35;5.45;;;11.30;99.90;;;;;;5080129;28;20047;-66
2021/05/09 04:23:42;;;;;;;10.95;6.15;;;11.30;99.90;;;;;;5090546;28;20039;-66
2021/05/09 04:26:08;;;;;;;8.45;6.25;;;11.30;99.90;;;;;;5097734;28;20043;-66
2021/05/09 04:28:34;;;;;;;9.13;5.82;;;11.30;99.90;;;;;;5091873;28;20039;-66
2021/05/09 04:30:59;;;;;;;9.27;6.03;;;11.30;99.90;;;;;;5094215;28;20457;-65
2021/05/09 04:33:26;;;;;;;8.68;5.97;;;11.30;99.90;;;;;;5085590;28;20047;-66
2021/05/09 04:35:53;;;;;;;7.80;5.60;;;11.30;99.90;;;;;;5097943;28;20040;-66
2021/05/09 04:38:20;;;;;;;8.32;5.20;;;11.40;99.90;;;;;;5098058;28;20039;-65
2021/05/09 04:40:47;;;;;;;7.60;5.22;;;11.50;99.90;;;;;;5092210;28;20028;-66
2021/05/09 04:43:19;;;;;;;10.73;5.72;;;11.50;99.90;;;;;;5099677;28;20036;-66
2021/05/09 04:45:49;;;;;;;10.93;6.15;;;11.50;99.90;;;;;;5092356;28;20043;-65
2021/05/09 04:48:15;;;;;;;9.05;5.95;;;11.60;99.90;;;;;;5099367;28;20055;-66
2021/05/09 04:50:41;;;;;;;10.30;5.70;;;11.70;99.90;;;;;;5095369;28;20040;-66
2021/05/09 04:53:34;;;;;;;7.78;5.65;;;11.80;99.90;;;;;;5092959;28;20111;-66
2021/05/09 04:56:08;;;;;;;7.72;5.75;;;11.90;99.90;;;;;;5090465;28;20048;-66
2021/05/09 04:58:39;;;;;;;8.98;5.45;;;12.00;99.90;;;;;;5100675;28;20544;-66
2021/05/09 05:01:07;;;;;;;8.32;5.05;;;12.10;99.90;;;;;;5098547;28;20047;-66
2021/05/09 05:03:33;;;;;;;7.50;5.18;;;12.20;99.90;;;;;;5099770;28;20384;-66
2021/05/09 05:05:59;;;;;;;9.93;4.82;;;12.30;99.90;;;;;;5095948;28;20569;-66
2021/05/09 05:08:27;;;;;;;9.88;5.60;;;12.50;99.90;;;;;;5104438;28;20039;-66
2021/05/09 05:10:53;;;;;;;11.90;5.35;;;12.60;99.90;;;;;;5093880;28;20126;-66
2021/05/09 05:13:23;;;;;;;7.72;5.22;;;12.80;99.90;;;;;;5107155;28;20554;-66
2021/05/09 05:15:51;;;;;;;6.90;5.05;;;12.90;99.90;;;;;;5096466;28;20263;-67
2021/05/09 05:18:18;;;;;;;9.60;5.32;;;13.00;99.90;;;;;;5100023;28;20101;-67
2021/05/09 05:20:44;;;;;;;9.70;5.63;;;13.20;99.90;;;;;;5097372;28;20036;-66
2021/05/09 05:23:11;;;;;;;6.05;4.72;;;13.30;99.90;;;;;;5103178;28;20067;-66
2021/05/09 05:25:37;;;;;;;8.32;5.00;;;13.40;99.90;;;;;;5091452;28;20545;-67
2021/05/09 05:28:04;;;;;;;7.32;5.05;;;13.50;99.90;;;;;;5098739;28;20151;-66
2021/05/09 05:30:31;;;;;;;7.00;5.15;;;13.60;99.90;;;;;;5094550;28;20540;-67
2021/05/09 05:33:00;;;;;;;6.88;5.00;;;13.70;99.90;;;;;;5100294;28;20025;-67
2021/05/09 05:35:27;;;;;;;9.05;5.03;;;13.80;99.90;;;;;;5093437;28;20055;-66
2021/05/09 05:37:53;;;;;;;7.45;4.82;;;13.90;99.90;;;;;;5103257;28;20495;-66
2021/05/09 05:40:20;;;;;;;7.97;5.00;;;14.00;99.90;;;;;;5098829;28;20047;-66
2021/05/09 05:42:46;;;;;;;7.30;5.57;;;14.10;99.90;;;;;;5092626;28;20040;-66
2021/05/09 05:45:12;;;;;;;5.35;4.40;;;14.20;99.80;;;;;;5096890;28;20364;-66
2021/05/09 05:47:38;;;;;;;5.25;4.75;;;14.30;99.90;;;;;;5092304;28;20052;-66
2021/05/09 05:50:05;;;;;;;7.45;4.70;;;14.40;99.80;;;;;;5100347;28;20042;-66
2021/05/09 05:52:31;;;;;;;7.25;4.93;;;14.60;99.60;;;;;;5097891;28;20487;-67
2021/05/09 05:54:58;;;;;;;6.82;5.20;;;14.70;99.50;;;;;;5104438;28;20040;-66
2021/05/09 05:57:24;;;;;;;8.95;4.85;;;14.80;99.50;;;;;;5102580;27;20046;-67
2021/05/09 05:59:50;;;;;;;10.60;4.68;;;14.90;99.50;;;;;;5104596;27;20044;-66
2021/05/09 06:02:16;;;;;;;10.48;4.90;;;15.00;98.80;;;;;;5099111;28;20467;-67
2021/05/09 06:04:42;;;;;;;6.63;5.15;;;15.10;99.20;;;;;;5103051;28;20449;-66
2021/05/09 06:07:09;;;;;;;6.65;5.03;;;15.30;99.20;;;;;;5093767;28;20044;-66
2021/05/09 06:09:35;;;;;;;8.73;4.90;;;15.40;98.80;;;;;;5101456;28;20097;-66
2021/05/09 06:12:02;;;;;;;8.45;4.65;;;15.50;98.80;;;;;;5101760;27;20429;-67
2021/05/09 06:14:29;;;;;;;6.95;4.65;;;15.60;98.70;;;;;;5098266;28;20039;-67
2021/05/09 06:16:54;;;;;;;6.38;4.57;;;15.70;98.40;;;;;;5099205;28;20043;-67
2021/05/09 06:19:20;;;;;;;8.98;4.55;;;15.70;98.20;;;;;;5090765;28;20040;-67
2021/05/09 06:21:46;;;;;;;7.90;4.70;;;15.80;98.00;;;;;;5101655;28;20106;-67
2021/05/09 06:24:12;;;;;;;7.63;5.07;;;15.90;97.90;;;;;;5090128;28;20158;-67
2021/05/09 06:26:38;;;;;;;6.78;4.95;;;15.90;97.70;;;;;;5093877;28;20044;-67
2021/05/09 06:29:05;;;;;;;6.88;4.50;;;16.00;97.30;;;;;;5092671;28;20505;-67
2021/05/09 06:31:30;;;;;;;7.75;4.47;;;16.10;97.40;;;;;;5096919;28;20089;-67
2021/05/09 06:33:56;;;;;;;6.80;4.90;;;16.10;96.90;;;;;;5075942;28;20445;-67
2021/05/09 06:36:22;;;;;;;6.95;4.95;;;16.20;96.90;;;;;;5080443;28;20060;-67
2021/05/09 06:38:48;;;;;;;7.93;4.65;;;16.30;96.40;;;;;;5100337;28;20039;-67
2021/05/09 06:41:15;;;;;;;7.35;4.35;;;16.40;96.80;;;;;;5097405;28;20035;-67
2021/05/09 06:43:40;;;;;;;6.97;5.03;;;16.40;96.40;;;;;;5096556;28;20043;-67
2021/05/09 06:46:06;;;;;;;5.63;4.65;;;16.50;96.50;;;;;;5102582;28;20036;-66
2021/05/09 06:48:33;;;;;;;10.05;6.55;;;16.50;95.90;;;;;;5095258;28;20404;-67
2021/05/09 06:50:59;;;;;;;9.63;5.15;;;16.50;96.00;;;;;;5104061;28;20089;-66
2021/05/09 06:53:25;;;;;;;9.25;4.90;;;16.60;96.50;;;;;;5101245;28;20043;-66
2021/05/09 06:55:51;;;;;;;6.72;4.55;;;16.70;96.20;;;;;;5092827;28;20066;-66
2021/05/09 06:58:21;;;;;;;7.03;4.40;;;16.80;96.20;;;;;;5097936;28;20043;-66
2021/05/09 07:00:47;;;;;;;6.32;3.90;;;16.90;96.10;;;;;;5096668;28;20388;-66
2021/05/09 07:03:13;;;;;;;8.57;4.25;;;17.00;96.00;;;;;;5099452;28;20046;-66
2021/05/09 07:05:39;;;;;;;7.82;4.05;;;17.10;95.80;;;;;;5095499;28;20036;-66
2021/05/09 07:08:04;;;;;;;6.18;4.85;;;17.20;95.60;;;;;;5102444;28;20071;-66
2021/05/09 07:10:34;;;;;;;7.60;4.38;;;17.30;95.70;;;;;;5078652;28;20036;-66
2021/05/09 07:13:00;;;;;;;10.07;4.75;;;17.40;95.20;;;;;;5100642;28;20483;-66
2021/05/09 07:18:10;;;;;;;6.78;4.25;;;17.50;95.10;;;;;;5101500;28;20035;-66
2021/05/09 07:20:51;;;;;;;8.23;4.68;;;17.50;95.10;;;;;;5094686;28;20490;-66
2021/05/09 07:23:17;;;;;;;9.30;4.35;;;17.50;94.90;;;;;;5094984;28;20474;-66
2021/05/09 07:25:42;;;;;;;7.47;4.28;;;17.60;95.20;;;;;;5093104;28;20124;-66
2021/05/09 07:28:14;;;;;;;7.82;4.72;;;17.70;95.00;;;;;;5091739;28;20044;-66
2021/05/09 07:30:43;;;;;;;6.15;4.07;;;17.70;94.70;;;;;;5095236;28;20038;-66
2021/05/09 07:33:09;;;;;;;6.38;4.18;;;17.80;94.40;;;;;;5098721;28;20402;-66
2021/05/09 07:35:35;;;;;;;7.45;4.07;;;17.90;94.50;;;;;;5092122;28;20084;-66
2021/05/09 07:38:03;;;;;;;6.55;4.20;;;18.00;94.00;;;;;;5102446;28;20118;-66
2021/05/09 07:40:29;;;;;;;7.00;3.85;;;18.00;94.10;;;;;;5097004;28;20039;-66
2021/05/09 07:42:55;;;;;;;7.00;3.75;;;18.10;94.30;;;;;;5095949;28;20071;-66
2021/05/09 07:45:22;;;;;;;5.78;3.92;;;18.20;93.80;;;;;;5101406;28;20051;-66
2021/05/09 07:47:48;;;;;;;5.03;3.67;;;18.30;94.50;;;;;;5096758;28;20127;-66
2021/05/09 07:50:16;;;;;;;4.80;4.00;;;18.40;94.10;;;;;;5098759;28;20035;-66
2021/05/09 07:52:48;;;;;;;6.80;3.70;;;18.40;93.60;;;;;;5095754;28;20066;-66
2021/05/09 07:55:15;;;;;;;5.60;3.40;;;18.50;93.70;;;;;;5100421;28;20089;-67
2021/05/09 07:57:42;;;;;;;7.50;3.90;;;18.60;94.10;;;;;;5093156;28;20158;-66
2021/05/09 08:00:14;;;;;;;4.47;3.20;;;18.70;93.60;;;;;;5094494;28;20115;-66
2021/05/09 08:02:41;;;;;;;6.05;3.20;;;18.80;93.10;;;;;;5095586;28;20035;-66
2021/05/09 08:05:08;;;;;;;4.90;3.20;;;18.90;93.20;;;;;;5098364;28;20098;-66
2021/05/09 08:07:34;;;;;;;7.97;3.53;;;18.90;92.40;;;;;;5078008;28;20044;-66
2021/05/09 08:10:00;;;;;;;5.60;3.00;;;19.00;92.60;;;;;;5080143;28;20063;-66
2021/05/09 08:12:26;;;;;;;6.88;4.50;;;19.20;92.70;;;;;;5098339;28;20439;-66
2021/05/09 08:14:52;;;;;;;6.93;4.00;;;19.40;92.10;;;;;;5091838;28;20036;-66
2021/05/09 08:17:17;;;;;;;5.70;3.25;;;19.40;91.90;;;;;;5094987;28;20076;-66
2021/05/09 08:19:43;;;;;;;4.05;2.88;;;19.60;92.30;;;;;;5102119;28;20063;-66
2021/05/09 08:22:09;;;;;;;5.07;2.75;;;19.70;92.20;;;;;;5090234;28;20044;-66
2021/05/09 08:24:35;;;;;;;6.22;3.30;;;19.90;92.60;;;;;;5094270;28;20047;-66
2021/05/09 08:27:01;;;;;;;3.83;2.72;;;20.20;92.80;;;;;;5097852;28;20104;-66
2021/05/09 08:29:26;;;;;;;4.53;2.38;;;20.50;92.60;;;;;;5096418;28;20449;-66
2021/05/09 08:31:52;;;;;;;3.63;2.42;;;20.80;91.90;;;;;;5101790;28;20116;-66
2021/05/09 08:34:18;;;;;;;4.80;2.80;;;21.20;92.00;;;;;;5096123;28;20036;-66
2021/05/09 08:36:44;;;;;;;4.22;2.30;;;21.60;91.20;;;;;;5102763;28;20442;-66
2021/05/09 08:39:10;;;;;;;6.18;2.15;;;21.80;90.30;;;;;;5104077;28;20116;-66
2021/05/09 08:41:40;;;;;;;3.75;2.15;;;22.20;90.00;;;;;;5104159;28;20039;-66
2021/05/09 08:44:10;;;;;;;2.88;1.92;;;22.30;87.50;;;;;;5095280;28;20475;-66
2021/05/09 08:46:37;;;;;;;4.32;1.92;;;22.50;86.70;;;;;;5104468;28;20534;-66
2021/05/09 08:49:04;;;;;;;3.05;2.13;;;22.70;87.50;;;;;;5104171;28;20126;-66
2021/05/09 08:51:31;;;;;;;4.43;2.08;;;22.80;85.10;;;;;;5102822;28;20047;-66
2021/05/09 08:53:58;;;;;;;3.45;1.88;;;22.90;85.50;;;;;;5097218;28;20081;-66
2021/05/09 08:56:25;;;;;;;3.08;2.03;;;23.10;86.70;;;;;;5105086;28;20048;-66
2021/05/09 08:58:51;;;;;;;2.95;1.77;;;23.30;86.60;;;;;;5101271;28;20084;-66
2021/05/09 09:01:18;;;;;;;3.40;1.77;;;23.50;87.40;;;;;;5105901;28;20055;-66
2021/05/09 09:03:44;;;;;;;2.78;1.48;;;23.70;85.00;;;;;;5101335;28;20036;-66
2021/05/09 09:06:16;;;;;;;4.43;1.80;;;23.80;84.30;;;;;;5099805;28;20057;-66
2021/05/09 09:08:51;;;;;;;3.67;1.83;;;23.80;81.50;;;;;;5102079;28;20047;-66
2021/05/09 09:11:27;;;;;;;4.72;1.90;;;23.80;74.10;;;;;;5099363;28;20102;-66
2021/05/09 09:14:10;;;;;;;2.22;1.40;;;23.70;79.80;;;;;;5102962;28;20099;-66
2021/05/09 09:16:37;;;;;;;3.10;1.57;;;23.80;79.00;;;;;;5105469;28;20036;-66
2021/05/09 09:19:12;;;;;;;2.30;1.38;;;23.60;82.20;;;;;;5105568;28;20039;-66
2021/05/09 09:21:39;;;;;;;4.63;1.98;;;23.50;77.00;;;;;;5094106;27;20128;-66
2021/05/09 09:24:13;;;;;;;2.88;1.70;;;23.20;78.50;;;;;;5104113;28;20621;-66
2021/05/09 09:26:49;;;;;;;2.33;1.65;;;23.00;76.90;;;;;;5098522;28;20427;-66
2021/05/09 09:29:23;;;;;;;2.78;1.40;;;22.70;74.60;;;;;;5103778;28;20047;-66
2021/05/09 09:31:55;;;;;;;2.78;1.20;;;22.40;75.10;;;;;;5096326;28;20036;-66
2021/05/09 09:34:22;;;;;;;4.30;1.73;;;22.00;74.80;;;;;;5103573;28;20086;-66
2021/05/09 09:36:48;;;;;;;3.15;1.45;;;21.70;76.70;;;;;;5098596;28;20063;-67
2021/05/09 09:39:15;;;;;;;3.20;1.40;;;21.50;78.90;;;;;;5102512;28;20093;-67
2021/05/09 09:41:49;;;;;;;3.97;1.67;;;21.40;79.90;;;;;;5098663;28;20036;-67
2021/05/09 09:44:16;;;;;;;;;;;21.20;79.80;;;;;;5102805;28;20510;-68
2021/05/09 09:46:51;;;;;;;3.17;1.42;;;21.00;75.20;;;;;;5094462;28;20011;-67
2021/05/09 09:49:30;;;;;;;4.38;1.80;;;20.90;86.10;;;;;;5103331;28;20047;-68
2021/05/09 09:52:01;;;;;;;3.70;2.17;;;20.90;86.00;;;;;;5094087;28;20480;-65
2021/05/09 09:54:36;;;;;;;4.10;2.00;;;20.80;85.60;;;;;;5099920;28;20066;-66
2021/05/09 09:57:09;;;;;;;5.15;1.85;;;20.70;85.80;;;;;;5091930;28;20066;-67
2021/05/09 09:59:35;;;;;;;3.42;1.92;;;20.60;87.10;;;;;;5103455;28;20032;-67
2021/05/09 10:02:06;;;;;;;3.25;1.80;;;20.80;89.30;;;;;;5095237;28;20077;-66
2021/05/09 10:04:33;;;;;;;6.60;2.10;;;21.40;91.90;;;;;;5104145;28;20154;-67
2021/05/09 10:07:05;;;;;;;5.10;1.58;;;21.80;91.50;;;;;;5099597;27;20046;-67
2021/05/09 10:09:31;;;;;;;4.43;1.63;;;22.10;88.10;;;;;;5100991;28;20050;-67
2021/05/09 10:11:57;;;;;;;2.17;1.25;;;22.20;87.40;;;;;;5093978;27;20036;-66
2021/05/09 10:14:23;;;;;;;1.75;1.05;;;22.10;83.40;;;;;;5104248;28;20090;-66
2021/05/09 10:16:50;;;;;;;3.55;1.30;;;22.10;83.40;;;;;;5098251;28;20036;-66
2021/05/09 10:19:21;;;;;;;3.28;1.05;;;22.10;83.10;;;;;;5103575;28;20055;-67
2021/05/09 10:21:48;;;;;;;2.67;1.40;;;22.10;81.70;;;;;;5096162;28;20574;-66
2021/05/09 10:24:23;;;;;;;4.32;1.42;;;22.00;78.90;;;;;;5101798;28;20453;-66
2021/05/09 10:27:10;;;;;;;2.58;1.00;;;22.10;77.40;;;;;;5100976;28;20403;-67
2021/05/09 10:29:39;;;;;;;3.15;1.38;;;22.20;75.70;;;;;;5101418;28;20150;-66
2021/05/09 10:32:28;;;;;;;3.28;1.00;;;22.40;81.70;;;;;;5100910;28;20080;-67
2021/05/09 10:34:54;;;;;;;2.70;1.00;;;22.50;81.50;;;;;;5096552;28;20036;-67
2021/05/09 10:37:56;;;;;;;1.85;0.88;;;22.70;81.60;;;;;;5101662;28;20036;-67
2021/05/09 10:40:36;;;;;;;5.03;1.20;;;23.00;75.40;;;;;;5098325;28;20040;-67
2021/05/09 10:43:02;;;;;;;3.00;1.50;;;23.20;78.20;;;;;;5100468;28;20080;-67
2021/05/09 10:45:36;;;;;;;4.97;1.50;;;23.40;76.00;;;;;;5099776;28;20114;-66
2021/05/09 10:48:18;;;;;;;3.30;0.90;;;23.60;74.20;;;;;;5095603;28;20086;-66
2021/05/09 10:51:02;;;;;;;3.03;0.95;;;23.90;65.80;;;;;;5102505;28;20085;-67
2021/05/09 10:53:34;;;;;;;2.30;0.80;;;24.30;74.10;;;;;;5097121;28;20441;-67
2021/05/09 10:56:07;;;;;;;0.70;0.40;;;24.50;69.40;;;;;;5098838;28;20074;-67
2021/05/09 10:58:47;;;;;;;1.70;0.60;;;24.80;69.20;;;;;;5094644;28;20047;-67
2021/05/09 11:01:15;;;;;;;4.40;0.80;;;25.00;61.00;;;;;;5099922;28;20032;-67
2021/05/09 11:03:41;;;;;;;1.30;0.57;;;25.30;66.60;;;;;;5094916;28;20105;-67
2021/05/09 11:06:09;;;;;;;2.42;0.50;;;25.70;71.00;;;;;;5098167;28;20445;-67
2021/05/09 11:08:56;;;;;;;2.28;0.50;;;25.90;65.80;;;;;;5093112;28;20089;-67
2021/05/09 11:11:25;;;;;;;1.88;0.57;;;26.00;57.50;;;;;;5101183;28;20046;-67
2021/05/09 11:13:57;;;;;;;1.80;0.50;;;26.10;62.70;;;;;;5096247;28;20111;-67
2021/05/09 11:16:24;;;;;;;2.67;0.50;;;26.30;58.70;;;;;;5081700;28;20062;-68
2021/05/09 11:18:56;;;;;;;2.28;0.40;;;26.20;57.20;;;;;;5100627;28;20126;-68
2021/05/09 11:21:23;;;;;;;2.92;0.70;;;26.00;54.90;;;;;;5104326;28;20059;-68
2021/05/09 11:23:49;;;;;;;1.17;0.50;;;25.90;55.00;;;;;;5103574;28;20453;-67
2021/05/09 11:26:26;;;;;;;1.48;0.50;;;25.80;52.50;;;;;;5091155;28;20474;-68
2021/05/09 11:29:10;;;;;;;1.83;0.43;;;25.60;52.10;;;;;;5101576;28;20040;-68
2021/05/09 11:31:41;;;;;;;1.33;0.50;;;25.40;50.10;;;;;;5099525;28;20063;-67
2021/05/09 11:34:08;;;;;;;1.42;0.47;;;25.40;52.40;;;;;;5101088;28;20383;-67
2021/05/09 11:36:36;;;;;;;2.75;0.73;;;25.70;53.80;;;;;;5094225;28;20114;-68
2021/05/09 11:39:09;;;;;;;1.52;0.50;;;26.00;53.40;;;;;;5101127;28;20034;-68
2021/05/09 11:42:27;;;;;;;1.55;0.40;;;26.30;52.20;;;;;;5100326;28;20043;-67
2021/05/09 11:44:52;;;;;;;3.38;0.60;;;26.80;51.70;;;;;;5060610;28;20078;-67
2021/05/09 11:47:26;;;;;;;3.85;0.60;;;26.90;50.80;;;;;;5092006;28;20529;-68
2021/05/09 11:50:00;;;;;;;1.13;0.47;;;27.00;52.10;;;;;;5066139;28;20353;-69
2021/05/09 11:52:27;;;;;;;;;;;27.40;49.30;;;;;;5058422;28;20044;-68
2021/05/09 11:54:58;;;;;;;3.38;0.60;;;27.70;47.40;;;;;;5057877;28;20285;-68
2021/05/09 11:57:29;;;;;;;1.42;0.60;;;27.80;49.40;;;;;;5053543;28;20036;-67
2021/05/09 12:00:00;;;;;;;2.20;0.60;;;27.90;49.70;;;;;;5056335;28;20699;-67
2021/05/09 12:02:33;;;;;;;1.88;0.43;;;28.10;49.60;;;;;;5055406;28;20483;-68
2021/05/09 12:05:05;;;;;;;3.30;0.73;;;28.30;46.20;;;;;;5059127;28;20049;-67
2021/05/09 12:07:58;;;;;;;3.00;0.60;;;28.40;48.10;;;;;;5053124;28;20412;-67
2021/05/09 12:10:24;;;;;;;2.10;0.60;;;28.40;46.90;;;;;;5062035;28;20037;-68
2021/05/09 12:12:55;;;;;;;1.45;0.55;;;28.30;47.10;;;;;;5051493;28;20055;-68
2021/05/09 12:15:21;;;;;;;1.75;0.60;;;28.20;47.10;;;;;;5059948;28;20403;-68
2021/05/09 12:17:51;;;;;;;1.90;0.60;;;28.10;47.20;;;;;;5056746;28;20111;-68
2021/05/09 12:20:28;;;;;;;1.48;0.50;;;28.10;47.60;;;;;;5058265;28;20450;-69
2021/05/09 12:22:55;;;;;;;1.92;0.70;;;27.90;47.80;;;;;;5051850;28;20036;-69
2021/05/09 12:25:50;;;;;;;1.58;0.70;;;27.50;48.70;;;;;;5061044;28;20044;-68
2021/05/09 12:28:27;;;;;;;1.92;0.50;;;27.10;49.30;;;;;;5052747;28;20064;-68
2021/05/09 12:30:54;;;;;;;3.88;0.80;;;26.90;50.50;;;;;;5057529;28;20236;-68
2021/05/09 12:33:30;;;;;;;2.92;0.65;;;27.10;50.80;;;;;;5048728;28;20492;-68
2021/05/09 12:35:58;;;;;;;1.92;0.68;;;27.20;51.20;;;;;;5060282;28;20059;-68
2021/05/09 12:38:34;;;;;;;3.33;0.80;;;27.10;50.60;;;;;;5056067;28;20048;-68
2021/05/09 12:41:02;;;;;;;3.47;0.88;;;26.80;50.40;;;;;;5057055;28;20074;-68
2021/05/09 12:43:47;;;;;;;1.45;0.80;;;26.50;50.70;;;;;;5053651;28;20038;-68
2021/05/09 12:46:42;;;;;;;1.90;0.98;;;26.40;51.60;;;;;;5059078;28;20029;-68
2021/05/09 12:49:16;;;;;;;1.30;0.50;;;26.10;51.70;;;;;;5078076;28;20162;-68
2021/05/09 12:52:05;;;;;;;2.83;0.85;;;25.90;52.90;;;;;;5100127;28;20036;-68
2021/05/09 12:54:42;;;;;;;2.67;1.13;;;25.70;52.70;;;;;;5092206;28;20036;-68
2021/05/09 12:57:25;;;;;;;5.60;3.83;;;25.40;53.70;;;;;;5099522;28;20394;-68